sim
Sign-in with your pilot id or email,
or register
Callsign
Passwort

Schedule Details

Flight Number: RYR5142 (3)
Departure: Karlsruhe/Baden-Baden Airport (EDSB) at 07:05
Arrival: Thessaloniki International Airport (LGTS) at 09:40
Route: Ryanair Passenger Schedule. Enter filed route here before submitting Pirep.

Weather Information
Getting current METAR information for EDSB 211150Z 23005KT 170V270 CAVOK 13/06 Q1029
Getting current METAR information for LGTS 211150Z 34014KT CAVOK 16/00 Q1023 NOSIG

Schedule Frequency

Route Map